sensor_id;sensor_type;location;lat;lon;timestamp;P1;durP1;ratioP1;P2;durP2;ratioP2
64487;SDS011;50864;45.050;39.014;2023-03-21T00:01:35;29.05;;;14.02;;
64487;SDS011;50864;45.050;39.014;2023-03-21T00:04:01;31.30;;;13.88;;
64487;SDS011;50864;45.050;39.014;2023-03-21T00:06:27;31.45;;;14.80;;
64487;SDS011;50864;45.050;39.014;2023-03-21T00:08:53;26.15;;;13.52;;
64487;SDS011;50864;45.050;39.014;2023-03-21T00:11:19;32.92;;;13.85;;
64487;SDS011;50864;45.050;39.014;2023-03-21T00:13:45;36.40;;;15.43;;
64487;SDS011;50864;45.050;39.014;2023-03-21T00:16:12;37.08;;;15.70;;
64487;SDS011;50864;45.050;39.014;2023-03-21T00:18:44;35.95;;;15.80;;
64487;SDS011;50864;45.050;39.014;2023-03-21T00:21:12;32.95;;;14.15;;
64487;SDS011;50864;45.050;39.014;2023-03-21T00:23:40;35.22;;;15.20;;
64487;SDS011;50864;45.050;39.014;2023-03-21T00:26:06;36.10;;;15.48;;
64487;SDS011;50864;45.050;39.014;2023-03-21T00:28:37;37.92;;;15.55;;
64487;SDS011;50864;45.050;39.014;2023-03-21T00:31:04;37.08;;;15.95;;
64487;SDS011;50864;45.050;39.014;2023-03-21T00:33:30;37.30;;;15.52;;
64487;SDS011;50864;45.050;39.014;2023-03-21T00:35:55;31.70;;;15.00;;
64487;SDS011;50864;45.050;39.014;2023-03-21T00:38:22;41.42;;;16.48;;
64487;SDS011;50864;45.050;39.014;2023-03-21T00:40:48;35.03;;;15.43;;
64487;SDS011;50864;45.050;39.014;2023-03-21T00:43:14;35.83;;;14.45;;
64487;SDS011;50864;45.050;39.014;2023-03-21T00:45:42;34.08;;;14.27;;
64487;SDS011;50864;45.050;39.014;2023-03-21T00:48:08;40.22;;;16.17;;
64487;SDS011;50864;45.050;39.014;2023-03-21T00:50:35;38.63;;;16.02;;
64487;SDS011;50864;45.050;39.014;2023-03-21T00:53:01;29.63;;;13.48;;
64487;SDS011;50864;45.050;39.014;2023-03-21T00:55:26;28.48;;;12.65;;
64487;SDS011;50864;45.050;39.014;2023-03-21T00:57:52;32.03;;;14.02;;
64487;SDS011;50864;45.050;39.014;2023-03-21T01:00:18;37.20;;;15.63;;
64487;SDS011;50864;45.050;39.014;2023-03-21T01:02:45;34.58;;;13.32;;
64487;SDS011;50864;45.050;39.014;2023-03-21T01:05:38;27.30;;;12.18;;
64487;SDS011;50864;45.050;39.014;2023-03-21T01:08:23;25.73;;;12.93;;
64487;SDS011;50864;45.050;39.014;2023-03-21T01:10:49;21.30;;;10.32;;
64487;SDS011;50864;45.050;39.014;2023-03-21T01:13:17;23.62;;;11.75;;
64487;SDS011;50864;45.050;39.014;2023-03-21T01:15:45;27.35;;;11.52;;
64487;SDS011;50864;45.050;39.014;2023-03-21T01:18:11;25.10;;;10.93;;
64487;SDS011;50864;45.050;39.014;2023-03-21T01:20:39;24.50;;;11.35;;
64487;SDS011;50864;45.050;39.014;2023-03-21T01:23:05;24.58;;;10.05;;
64487;SDS011;50864;45.050;39.014;2023-03-21T01:25:32;23.40;;;9.68;;
64487;SDS011;50864;45.050;39.014;2023-03-21T01:27:58;20.83;;;10.30;;
64487;SDS011;50864;45.050;39.014;2023-03-21T01:30:23;16.70;;;8.40;;
64487;SDS011;50864;45.050;39.014;2023-03-21T01:32:50;17.85;;;8.73;;
64487;SDS011;50864;45.050;39.014;2023-03-21T01:35:15;20.48;;;8.88;;
64487;SDS011;50864;45.050;39.014;2023-03-21T01:37:41;15.95;;;8.02;;
64487;SDS011;50864;45.050;39.014;2023-03-21T01:40:10;20.02;;;9.02;;
64487;SDS011;50864;45.050;39.014;2023-03-21T01:42:38;17.27;;;7.53;;
64487;SDS011;50864;45.050;39.014;2023-03-21T01:45:56;15.93;;;7.75;;
64487;SDS011;50864;45.050;39.014;2023-03-21T01:47:51;18.50;;;8.07;;
64487;SDS011;50864;45.050;39.014;2023-03-21T01:50:18;14.10;;;7.60;;
64487;SDS011;50864;45.050;39.014;2023-03-21T01:52:47;18.40;;;7.82;;
64487;SDS011;50864;45.050;39.014;2023-03-21T01:55:15;14.65;;;7.45;;
64487;SDS011;50864;45.050;39.014;2023-03-21T01:57:45;15.43;;;7.07;;
64487;SDS011;50864;45.050;39.014;2023-03-21T02:00:12;16.42;;;7.80;;
64487;SDS011;50864;45.050;39.014;2023-03-21T02:02:44;12.35;;;6.05;;
64487;SDS011;50864;45.050;39.014;2023-03-21T02:05:29;11.18;;;5.32;;
64487;SDS011;50864;45.050;39.014;2023-03-21T02:07:58;11.38;;;4.40;;
64487;SDS011;50864;45.050;39.014;2023-03-21T02:10:25;9.35;;;4.22;;
64487;SDS011;50864;45.050;39.014;2023-03-21T02:12:52;11.05;;;4.47;;
64487;SDS011;50864;45.050;39.014;2023-03-21T02:15:20;10.60;;;4.25;;
64487;SDS011;50864;45.050;39.014;2023-03-21T02:17:57;10.10;;;5.07;;
64487;SDS011;50864;45.050;39.014;2023-03-21T02:23:16;8.90;;;3.87;;
64487;SDS011;50864;45.050;39.014;2023-03-21T02:25:55;6.87;;;3.50;;
64487;SDS011;50864;45.050;39.014;2023-03-21T02:31:06;8.30;;;3.08;;
64487;SDS011;50864;45.050;39.014;2023-03-21T02:38:53;5.35;;;2.83;;
64487;SDS011;50864;45.050;39.014;2023-03-21T02:46:21;6.15;;;3.00;;
64487;SDS011;50864;45.050;39.014;2023-03-21T02:51:21;4.22;;;1.90;;
64487;SDS011;50864;45.050;39.014;2023-03-21T02:54:20;4.28;;;2.10;;
64487;SDS011;50864;45.050;39.014;2023-03-21T02:56:40;4.20;;;2.25;;
64487;SDS011;50864;45.050;39.014;2023-03-21T02:59:06;6.65;;;2.45;;
64487;SDS011;50864;45.050;39.014;2023-03-21T03:01:32;4.43;;;1.95;;
64487;SDS011;50864;45.050;39.014;2023-03-21T03:04:00;5.60;;;2.70;;
64487;SDS011;50864;45.050;39.014;2023-03-21T03:06:38;3.65;;;1.95;;
64487;SDS011;50864;45.050;39.014;2023-03-21T03:11:41;2.58;;;1.60;;
64487;SDS011;50864;45.050;39.014;2023-03-21T03:19:24;4.15;;;2.08;;
64487;SDS011;50864;45.050;39.014;2023-03-21T03:24:37;3.37;;;1.60;;
64487;SDS011;50864;45.050;39.014;2023-03-21T03:27:09;1.75;;;1.45;;
64487;SDS011;50864;45.050;39.014;2023-03-21T03:29:38;4.72;;;1.92;;
64487;SDS011;50864;45.050;39.014;2023-03-21T03:34:35;1.98;;;1.55;;
64487;SDS011;50864;45.050;39.014;2023-03-21T03:37:07;1.87;;;1.50;;
64487;SDS011;50864;45.050;39.014;2023-03-21T03:39:42;4.40;;;1.50;;
64487;SDS011;50864;45.050;39.014;2023-03-21T03:42:18;2.45;;;1.60;;
64487;SDS011;50864;45.050;39.014;2023-03-21T03:44:45;2.92;;;1.50;;
64487;SDS011;50864;45.050;39.014;2023-03-21T03:50:00;1.50;;;1.40;;
64487;SDS011;50864;45.050;39.014;2023-03-21T03:52:30;1.48;;;1.20;;
64487;SDS011;50864;45.050;39.014;2023-03-21T03:54:58;2.70;;;1.25;;
64487;SDS011;50864;45.050;39.014;2023-03-21T03:57:25;4.45;;;1.42;;
64487;SDS011;50864;45.050;39.014;2023-03-21T03:59:52;3.15;;;1.70;;
64487;SDS011;50864;45.050;39.014;2023-03-21T04:02:18;4.55;;;1.60;;
64487;SDS011;50864;45.050;39.014;2023-03-21T04:04:45;1.77;;;1.50;;
64487;SDS011;50864;45.050;39.014;2023-03-21T04:07:12;3.47;;;1.60;;
64487;SDS011;50864;45.050;39.014;2023-03-21T04:09:38;3.00;;;1.45;;
64487;SDS011;50864;45.050;39.014;2023-03-21T04:12:04;1.67;;;1.50;;
64487;SDS011;50864;45.050;39.014;2023-03-21T04:14:30;6.78;;;1.73;;
64487;SDS011;50864;45.050;39.014;2023-03-21T04:16:56;3.03;;;1.48;;
64487;SDS011;50864;45.050;39.014;2023-03-21T04:19:22;3.37;;;1.55;;
64487;SDS011;50864;45.050;39.014;2023-03-21T04:21:48;2.20;;;1.20;;
64487;SDS011;50864;45.050;39.014;2023-03-21T04:24:14;3.33;;;1.95;;
64487;SDS011;50864;45.050;39.014;2023-03-21T04:26:42;2.53;;;1.62;;
64487;SDS011;50864;45.050;39.014;2023-03-21T04:29:10;3.47;;;1.60;;
64487;SDS011;50864;45.050;39.014;2023-03-21T04:31:39;1.80;;;1.40;;
64487;SDS011;50864;45.050;39.014;2023-03-21T04:34:07;3.75;;;1.62;;
64487;SDS011;50864;45.050;39.014;2023-03-21T04:36:35;3.20;;;1.60;;
64487;SDS011;50864;45.050;39.014;2023-03-21T04:39:05;1.85;;;1.50;;
64487;SDS011;50864;45.050;39.014;2023-03-21T04:41:37;1.67;;;1.45;;
64487;SDS011;50864;45.050;39.014;2023-03-21T04:44:03;3.25;;;1.65;;
64487;SDS011;50864;45.050;39.014;2023-03-21T04:46:29;1.62;;;1.50;;
64487;SDS011;50864;45.050;39.014;2023-03-21T04:48:55;3.67;;;1.70;;
64487;SDS011;50864;45.050;39.014;2023-03-21T04:51:20;2.15;;;1.40;;
64487;SDS011;50864;45.050;39.014;2023-03-21T04:53:46;5.03;;;1.60;;
64487;SDS011;50864;45.050;39.014;2023-03-21T04:56:14;3.15;;;1.70;;
64487;SDS011;50864;45.050;39.014;2023-03-21T04:58:42;1.83;;;1.52;;
64487;SDS011;50864;45.050;39.014;2023-03-21T05:01:08;3.90;;;1.65;;
64487;SDS011;50864;45.050;39.014;2023-03-21T05:03:34;2.95;;;1.62;;
64487;SDS011;50864;45.050;39.014;2023-03-21T05:06:05;3.70;;;1.70;;
64487;SDS011;50864;45.050;39.014;2023-03-21T05:08:33;1.98;;;1.45;;
64487;SDS011;50864;45.050;39.014;2023-03-21T05:10:59;4.20;;;1.80;;
64487;SDS011;50864;45.050;39.014;2023-03-21T05:13:25;4.50;;;1.80;;
64487;SDS011;50864;45.050;39.014;2023-03-21T05:15:51;3.17;;;1.98;;
64487;SDS011;50864;45.050;39.014;2023-03-21T05:18:17;2.45;;;1.48;;
64487;SDS011;50864;45.050;39.014;2023-03-21T05:20:51;1.90;;;1.70;;
64487;SDS011;50864;45.050;39.014;2023-03-21T05:23:22;3.22;;;1.80;;
64487;SDS011;50864;45.050;39.014;2023-03-21T05:25:48;3.30;;;1.80;;
64487;SDS011;50864;45.050;39.014;2023-03-21T05:28:14;4.12;;;1.70;;
64487;SDS011;50864;45.050;39.014;2023-03-21T05:30:44;4.65;;;1.83;;
64487;SDS011;50864;45.050;39.014;2023-03-21T05:33:10;3.90;;;1.80;;
64487;SDS011;50864;45.050;39.014;2023-03-21T05:35:37;4.62;;;2.00;;
64487;SDS011;50864;45.050;39.014;2023-03-21T05:38:04;3.35;;;1.80;;
64487;SDS011;50864;45.050;39.014;2023-03-21T05:40:30;2.97;;;1.65;;
64487;SDS011;50864;45.050;39.014;2023-03-21T05:42:56;2.72;;;1.67;;
64487;SDS011;50864;45.050;39.014;2023-03-21T05:45:23;2.92;;;1.80;;
64487;SDS011;50864;45.050;39.014;2023-03-21T05:47:49;3.35;;;2.05;;
64487;SDS011;50864;45.050;39.014;2023-03-21T05:50:15;3.03;;;1.85;;
64487;SDS011;50864;45.050;39.014;2023-03-21T05:52:42;4.37;;;1.75;;
64487;SDS011;50864;45.050;39.014;2023-03-21T05:55:08;3.00;;;1.92;;
64487;SDS011;50864;45.050;39.014;2023-03-21T05:57:35;5.03;;;2.00;;
64487;SDS011;50864;45.050;39.014;2023-03-21T06:00:04;3.97;;;1.85;;
64487;SDS011;50864;45.050;39.014;2023-03-21T06:02:40;5.20;;;2.83;;
64487;SDS011;50864;45.050;39.014;2023-03-21T06:05:12;3.87;;;2.12;;
64487;SDS011;50864;45.050;39.014;2023-03-21T06:07:38;3.28;;;2.00;;
64487;SDS011;50864;45.050;39.014;2023-03-21T06:10:07;3.50;;;1.98;;
64487;SDS011;50864;45.050;39.014;2023-03-21T06:12:34;4.12;;;2.12;;
64487;SDS011;50864;45.050;39.014;2023-03-21T06:15:02;4.65;;;1.90;;
64487;SDS011;50864;45.050;39.014;2023-03-21T06:17:30;5.40;;;1.87;;
64487;SDS011;50864;45.050;39.014;2023-03-21T06:19:57;2.78;;;1.77;;
64487;SDS011;50864;45.050;39.014;2023-03-21T06:22:26;3.28;;;1.67;;
64487;SDS011;50864;45.050;39.014;2023-03-21T06:24:52;2.30;;;1.75;;
64487;SDS011;50864;45.050;39.014;2023-03-21T06:27:18;2.78;;;1.92;;
64487;SDS011;50864;45.050;39.014;2023-03-21T06:29:44;2.45;;;1.73;;
64487;SDS011;50864;45.050;39.014;2023-03-21T06:32:11;2.65;;;1.67;;
64487;SDS011;50864;45.050;39.014;2023-03-21T06:34:38;2.30;;;1.65;;
64487;SDS011;50864;45.050;39.014;2023-03-21T06:37:04;1.90;;;1.70;;
64487;SDS011;50864;45.050;39.014;2023-03-21T06:39:30;2.85;;;1.70;;
64487;SDS011;50864;45.050;39.014;2023-03-21T06:41:58;5.45;;;2.00;;
64487;SDS011;50864;45.050;39.014;2023-03-21T06:44:24;3.53;;;2.25;;
64487;SDS011;50864;45.050;39.014;2023-03-21T06:46:51;3.03;;;1.98;;
64487;SDS011;50864;45.050;39.014;2023-03-21T06:49:17;3.08;;;2.10;;
64487;SDS011;50864;45.050;39.014;2023-03-21T06:51:44;6.55;;;2.60;;
64487;SDS011;50864;45.050;39.014;2023-03-21T06:54:11;4.00;;;2.40;;
64487;SDS011;50864;45.050;39.014;2023-03-21T06:56:38;3.53;;;2.05;;
64487;SDS011;50864;45.050;39.014;2023-03-21T06:59:08;2.72;;;2.00;;
64487;SDS011;50864;45.050;39.014;2023-03-21T07:01:35;6.43;;;2.33;;
64487;SDS011;50864;45.050;39.014;2023-03-21T07:04:02;3.35;;;2.20;;
64487;SDS011;50864;45.050;39.014;2023-03-21T07:06:29;4.35;;;2.15;;
64487;SDS011;50864;45.050;39.014;2023-03-21T07:08:55;4.93;;;2.20;;
64487;SDS011;50864;45.050;39.014;2023-03-21T07:11:23;4.75;;;2.00;;
64487;SDS011;50864;45.050;39.014;2023-03-21T07:13:50;3.53;;;2.20;;
64487;SDS011;50864;45.050;39.014;2023-03-21T07:16:18;4.07;;;2.03;;
64487;SDS011;50864;45.050;39.014;2023-03-21T07:18:46;4.55;;;2.05;;
64487;SDS011;50864;45.050;39.014;2023-03-21T07:21:13;4.93;;;1.95;;
64487;SDS011;50864;45.050;39.014;2023-03-21T07:23:39;4.20;;;1.92;;
64487;SDS011;50864;45.050;39.014;2023-03-21T07:26:06;5.80;;;2.70;;
64487;SDS011;50864;45.050;39.014;2023-03-21T07:28:32;4.53;;;2.65;;
64487;SDS011;50864;45.050;39.014;2023-03-21T07:31:01;2.47;;;1.55;;
64487;SDS011;50864;45.050;39.014;2023-03-21T07:33:30;4.25;;;1.98;;
64487;SDS011;50864;45.050;39.014;2023-03-21T07:35:57;3.95;;;1.87;;
64487;SDS011;50864;45.050;39.014;2023-03-21T07:38:25;2.72;;;1.70;;
64487;SDS011;50864;45.050;39.014;2023-03-21T07:40:51;4.68;;;1.80;;
64487;SDS011;50864;45.050;39.014;2023-03-21T07:43:18;3.60;;;1.62;;
64487;SDS011;50864;45.050;39.014;2023-03-21T07:45:45;3.60;;;1.55;;
64487;SDS011;50864;45.050;39.014;2023-03-21T07:48:12;2.75;;;1.60;;
64487;SDS011;50864;45.050;39.014;2023-03-21T07:50:39;2.75;;;1.70;;
64487;SDS011;50864;45.050;39.014;2023-03-21T07:53:05;1.83;;;1.50;;
64487;SDS011;50864;45.050;39.014;2023-03-21T07:55:32;3.00;;;1.50;;
64487;SDS011;50864;45.050;39.014;2023-03-21T07:58:01;1.67;;;1.55;;
64487;SDS011;50864;45.050;39.014;2023-03-21T08:00:27;4.25;;;1.73;;
64487;SDS011;50864;45.050;39.014;2023-03-21T08:02:54;2.45;;;1.65;;
64487;SDS011;50864;45.050;39.014;2023-03-21T08:05:20;4.60;;;1.70;;
64487;SDS011;50864;45.050;39.014;2023-03-21T08:07:46;1.95;;;1.60;;
64487;SDS011;50864;45.050;39.014;2023-03-21T08:10:13;1.70;;;1.45;;
64487;SDS011;50864;45.050;39.014;2023-03-21T08:12:38;4.05;;;1.70;;
64487;SDS011;50864;45.050;39.014;2023-03-21T08:15:04;13.02;;;6.47;;
64487;SDS011;50864;45.050;39.014;2023-03-21T08:17:31;3.47;;;2.67;;
64487;SDS011;50864;45.050;39.014;2023-03-21T08:19:56;2.95;;;1.45;;
64487;SDS011;50864;45.050;39.014;2023-03-21T08:22:22;2.78;;;1.40;;
64487;SDS011;50864;45.050;39.014;2023-03-21T08:24:48;4.30;;;1.60;;
64487;SDS011;50864;45.050;39.014;2023-03-21T08:27:14;4.37;;;1.50;;
64487;SDS011;50864;45.050;39.014;2023-03-21T08:29:40;2.78;;;1.55;;
64487;SDS011;50864;45.050;39.014;2023-03-21T08:32:07;2.75;;;1.80;;
64487;SDS011;50864;45.050;39.014;2023-03-21T08:34:33;1.75;;;1.50;;
64487;SDS011;50864;45.050;39.014;2023-03-21T08:37:02;3.72;;;1.80;;
64487;SDS011;50864;45.050;39.014;2023-03-21T08:39:29;1.60;;;1.42;;
64487;SDS011;50864;45.050;39.014;2023-03-21T08:41:54;2.90;;;1.40;;
64487;SDS011;50864;45.050;39.014;2023-03-21T08:44:20;6.45;;;1.85;;
64487;SDS011;50864;45.050;39.014;2023-03-21T08:46:47;1.77;;;1.40;;
64487;SDS011;50864;45.050;39.014;2023-03-21T08:49:13;2.85;;;1.40;;
64487;SDS011;50864;45.050;39.014;2023-03-21T08:51:38;3.12;;;1.62;;
64487;SDS011;50864;45.050;39.014;2023-03-21T08:54:06;3.03;;;1.58;;
64487;SDS011;50864;45.050;39.014;2023-03-21T08:56:32;3.70;;;1.55;;
64487;SDS011;50864;45.050;39.014;2023-03-21T08:58:58;3.30;;;2.00;;
64487;SDS011;50864;45.050;39.014;2023-03-21T09:01:27;3.37;;;1.80;;
64487;SDS011;50864;45.050;39.014;2023-03-21T09:03:54;1.55;;;1.30;;
64487;SDS011;50864;45.050;39.014;2023-03-21T09:06:20;1.58;;;1.30;;
64487;SDS011;50864;45.050;39.014;2023-03-21T09:08:46;3.00;;;1.40;;
64487;SDS011;50864;45.050;39.014;2023-03-21T09:11:13;2.62;;;1.50;;
64487;SDS011;50864;45.050;39.014;2023-03-21T09:13:41;1.52;;;1.40;;
64487;SDS011;50864;45.050;39.014;2023-03-21T09:16:08;2.15;;;1.60;;
64487;SDS011;50864;45.050;39.014;2023-03-21T09:18:36;1.87;;;1.12;;
64487;SDS011;50864;45.050;39.014;2023-03-21T09:21:20;7.30;;;2.67;;
64487;SDS011;50864;45.050;39.014;2023-03-21T09:23:47;2.42;;;1.45;;
64487;SDS011;50864;45.050;39.014;2023-03-21T09:26:15;3.92;;;1.87;;
64487;SDS011;50864;45.050;39.014;2023-03-21T09:28:41;1.90;;;1.23;;
64487;SDS011;50864;45.050;39.014;2023-03-21T09:31:07;1.70;;;1.58;;
64487;SDS011;50864;45.050;39.014;2023-03-21T09:33:37;4.45;;;1.30;;
64487;SDS011;50864;45.050;39.014;2023-03-21T09:36:05;5.15;;;1.90;;
64487;SDS011;50864;45.050;39.014;2023-03-21T09:38:36;1.98;;;1.45;;
64487;SDS011;50864;45.050;39.014;2023-03-21T09:51:11;4.15;;;1.40;;
64487;SDS011;50864;45.050;39.014;2023-03-21T09:53:40;6.18;;;3.12;;
64487;SDS011;50864;45.050;39.014;2023-03-21T09:56:07;4.75;;;1.98;;
64487;SDS011;50864;45.050;39.014;2023-03-21T09:58:36;4.22;;;1.60;;
64487;SDS011;50864;45.050;39.014;2023-03-21T10:01:13;3.83;;;1.40;;
64487;SDS011;50864;45.050;39.014;2023-03-21T10:03:51;2.40;;;1.60;;
64487;SDS011;50864;45.050;39.014;2023-03-21T10:06:19;2.00;;;1.35;;
64487;SDS011;50864;45.050;39.014;2023-03-21T10:09:04;3.83;;;1.58;;
64487;SDS011;50864;45.050;39.014;2023-03-21T10:11:50;4.82;;;1.50;;
64487;SDS011;50864;45.050;39.014;2023-03-21T10:16:51;5.70;;;1.73;;
64487;SDS011;50864;45.050;39.014;2023-03-21T10:19:18;2.65;;;1.50;;
64487;SDS011;50864;45.050;39.014;2023-03-21T10:21:45;5.05;;;1.30;;
64487;SDS011;50864;45.050;39.014;2023-03-21T10:24:15;2.47;;;1.40;;
64487;SDS011;50864;45.050;39.014;2023-03-21T10:26:42;4.80;;;1.98;;
64487;SDS011;50864;45.050;39.014;2023-03-21T10:29:09;4.80;;;1.58;;
64487;SDS011;50864;45.050;39.014;2023-03-21T10:31:38;2.47;;;1.50;;
64487;SDS011;50864;45.050;39.014;2023-03-21T10:34:08;2.72;;;1.55;;
64487;SDS011;50864;45.050;39.014;2023-03-21T10:36:36;2.17;;;1.50;;
64487;SDS011;50864;45.050;39.014;2023-03-21T10:39:07;2.87;;;1.60;;
64487;SDS011;50864;45.050;39.014;2023-03-21T10:41:35;4.72;;;1.70;;
64487;SDS011;50864;45.050;39.014;2023-03-21T10:44:04;4.75;;;1.67;;
64487;SDS011;50864;45.050;39.014;2023-03-21T10:46:30;2.97;;;1.50;;
64487;SDS011;50864;45.050;39.014;2023-03-21T10:48:56;3.15;;;1.50;;
64487;SDS011;50864;45.050;39.014;2023-03-21T10:51:27;2.28;;;1.60;;
64487;SDS011;50864;45.050;39.014;2023-03-21T10:53:56;5.55;;;1.67;;
64487;SDS011;50864;45.050;39.014;2023-03-21T10:56:28;3.12;;;1.52;;
64487;SDS011;50864;45.050;39.014;2023-03-21T10:58:55;4.50;;;1.70;;
64487;SDS011;50864;45.050;39.014;2023-03-21T11:01:45;2.62;;;1.50;;
64487;SDS011;50864;45.050;39.014;2023-03-21T11:04:16;6.60;;;1.58;;
64487;SDS011;50864;45.050;39.014;2023-03-21T11:06:50;3.62;;;1.75;;
64487;SDS011;50864;45.050;39.014;2023-03-21T11:09:18;1.75;;;1.20;;
64487;SDS011;50864;45.050;39.014;2023-03-21T11:12:03;2.55;;;1.50;;
64487;SDS011;50864;45.050;39.014;2023-03-21T11:23:49;6.60;;;1.90;;
64487;SDS011;50864;45.050;39.014;2023-03-21T11:26:24;4.18;;;1.60;;
64487;SDS011;50864;45.050;39.014;2023-03-21T11:28:53;3.65;;;1.80;;
64487;SDS011;50864;45.050;39.014;2023-03-21T11:31:19;5.07;;;2.08;;
64487;SDS011;50864;45.050;39.014;2023-03-21T11:33:55;6.22;;;2.08;;
64487;SDS011;50864;45.050;39.014;2023-03-21T11:36:30;6.90;;;3.55;;
64487;SDS011;50864;45.050;39.014;2023-03-21T11:41:36;3.17;;;1.67;;
64487;SDS011;50864;45.050;39.014;2023-03-21T11:44:04;6.12;;;1.80;;
64487;SDS011;50864;45.050;39.014;2023-03-21T11:46:30;6.18;;;1.90;;
64487;SDS011;50864;45.050;39.014;2023-03-21T11:48:57;3.10;;;1.90;;
64487;SDS011;50864;45.050;39.014;2023-03-21T11:54:06;4.45;;;1.65;;
64487;SDS011;50864;45.050;39.014;2023-03-21T11:56:45;3.28;;;1.67;;
64487;SDS011;50864;45.050;39.014;2023-03-21T12:07:45;5.10;;;2.15;;
64487;SDS011;50864;45.050;39.014;2023-03-21T12:10:29;6.40;;;2.25;;
64487;SDS011;50864;45.050;39.014;2023-03-21T12:13:01;7.70;;;2.10;;
64487;SDS011;50864;45.050;39.014;2023-03-21T12:15:37;6.85;;;1.80;;
64487;SDS011;50864;45.050;39.014;2023-03-21T12:21:14;6.53;;;2.20;;
64487;SDS011;50864;45.050;39.014;2023-03-21T12:31:24;13.45;;;4.32;;
64487;SDS011;50864;45.050;39.014;2023-03-21T12:39:21;3.17;;;1.80;;
64487;SDS011;50864;45.050;39.014;2023-03-21T12:44:20;7.65;;;2.92;;
64487;SDS011;50864;45.050;39.014;2023-03-21T12:51:40;9.10;;;2.47;;
64487;SDS011;50864;45.050;39.014;2023-03-21T12:54:13;10.00;;;2.47;;
64487;SDS011;50864;45.050;39.014;2023-03-21T12:56:53;20.92;;;3.72;;
64487;SDS011;50864;45.050;39.014;2023-03-21T13:01:52;17.10;;;8.63;;
64487;SDS011;50864;45.050;39.014;2023-03-21T13:06:48;6.55;;;3.35;;
64487;SDS011;50864;45.050;39.014;2023-03-21T13:09:19;10.48;;;4.45;;
64487;SDS011;50864;45.050;39.014;2023-03-21T13:11:47;8.52;;;3.03;;
64487;SDS011;50864;45.050;39.014;2023-03-21T13:14:23;7.12;;;2.72;;
64487;SDS011;50864;45.050;39.014;2023-03-21T13:16:52;6.72;;;2.50;;
64487;SDS011;50864;45.050;39.014;2023-03-21T13:19:27;7.35;;;2.55;;
64487;SDS011;50864;45.050;39.014;2023-03-21T13:24:31;8.15;;;2.70;;
64487;SDS011;50864;45.050;39.014;2023-03-21T13:27:00;8.27;;;2.50;;
64487;SDS011;50864;45.050;39.014;2023-03-21T13:29:34;6.97;;;2.55;;
64487;SDS011;50864;45.050;39.014;2023-03-21T13:32:08;5.10;;;2.20;;
64487;SDS011;50864;45.050;39.014;2023-03-21T13:34:37;9.13;;;2.60;;
64487;SDS011;50864;45.050;39.014;2023-03-21T13:37:03;5.68;;;2.90;;
64487;SDS011;50864;45.050;39.014;2023-03-21T13:39:29;7.70;;;3.00;;
64487;SDS011;50864;45.050;39.014;2023-03-21T13:41:58;6.50;;;3.15;;
64487;SDS011;50864;45.050;39.014;2023-03-21T13:52:41;8.02;;;2.45;;
64487;SDS011;50864;45.050;39.014;2023-03-21T13:55:14;7.22;;;2.90;;
64487;SDS011;50864;45.050;39.014;2023-03-21T13:57:41;8.25;;;2.87;;
64487;SDS011;50864;45.050;39.014;2023-03-21T14:02:52;9.95;;;2.95;;
64487;SDS011;50864;45.050;39.014;2023-03-21T14:05:20;10.35;;;3.00;;
64487;SDS011;50864;45.050;39.014;2023-03-21T14:07:47;8.70;;;3.97;;
64487;SDS011;50864;45.050;39.014;2023-03-21T14:10:21;9.25;;;4.00;;
64487;SDS011;50864;45.050;39.014;2023-03-21T14:12:48;3.90;;;2.22;;
64487;SDS011;50864;45.050;39.014;2023-03-21T14:15:18;6.95;;;2.62;;
64487;SDS011;50864;45.050;39.014;2023-03-21T14:18:04;6.50;;;2.30;;
64487;SDS011;50864;45.050;39.014;2023-03-21T14:20:31;7.22;;;2.75;;
64487;SDS011;50864;45.050;39.014;2023-03-21T14:22:57;8.55;;;3.80;;
64487;SDS011;50864;45.050;39.014;2023-03-21T14:25:23;9.63;;;3.92;;
64487;SDS011;50864;45.050;39.014;2023-03-21T14:27:53;6.57;;;3.10;;
64487;SDS011;50864;45.050;39.014;2023-03-21T14:30:33;5.40;;;2.50;;
64487;SDS011;50864;45.050;39.014;2023-03-21T14:33:02;8.27;;;2.72;;
64487;SDS011;50864;45.050;39.014;2023-03-21T14:35:29;6.87;;;3.00;;
64487;SDS011;50864;45.050;39.014;2023-03-21T14:37:58;6.97;;;2.85;;
64487;SDS011;50864;45.050;39.014;2023-03-21T14:40:25;11.88;;;4.82;;
64487;SDS011;50864;45.050;39.014;2023-03-21T14:42:52;8.70;;;4.82;;
64487;SDS011;50864;45.050;39.014;2023-03-21T14:50:33;6.97;;;3.30;;
64487;SDS011;50864;45.050;39.014;2023-03-21T14:53:01;11.88;;;3.58;;
64487;SDS011;50864;45.050;39.014;2023-03-21T14:55:27;10.48;;;3.50;;
64487;SDS011;50864;45.050;39.014;2023-03-21T14:57:53;12.73;;;3.60;;
64487;SDS011;50864;45.050;39.014;2023-03-21T15:00:24;12.20;;;4.25;;
64487;SDS011;50864;45.050;39.014;2023-03-21T15:02:50;11.85;;;5.57;;
64487;SDS011;50864;45.050;39.014;2023-03-21T15:05:19;12.65;;;4.05;;
64487;SDS011;50864;45.050;39.014;2023-03-21T15:07:51;11.30;;;3.40;;
64487;SDS011;50864;45.050;39.014;2023-03-21T15:10:18;8.13;;;3.87;;
64487;SDS011;50864;45.050;39.014;2023-03-21T15:12:51;8.43;;;3.17;;
64487;SDS011;50864;45.050;39.014;2023-03-21T15:15:18;7.60;;;3.55;;
64487;SDS011;50864;45.050;39.014;2023-03-21T15:17:44;12.32;;;3.90;;
64487;SDS011;50864;45.050;39.014;2023-03-21T15:20:14;10.65;;;3.50;;
64487;SDS011;50864;45.050;39.014;2023-03-21T15:22:43;12.13;;;3.60;;
64487;SDS011;50864;45.050;39.014;2023-03-21T15:25:12;11.73;;;3.15;;
64487;SDS011;50864;45.050;39.014;2023-03-21T15:27:41;14.35;;;4.57;;
64487;SDS011;50864;45.050;39.014;2023-03-21T15:30:16;10.65;;;3.50;;
64487;SDS011;50864;45.050;39.014;2023-03-21T15:32:42;7.50;;;3.17;;
64487;SDS011;50864;45.050;39.014;2023-03-21T15:35:12;10.93;;;3.40;;
64487;SDS011;50864;45.050;39.014;2023-03-21T15:37:40;7.87;;;3.37;;
64487;SDS011;50864;45.050;39.014;2023-03-21T15:40:15;13.38;;;3.95;;
64487;SDS011;50864;45.050;39.014;2023-03-21T15:42:42;13.88;;;5.25;;
64487;SDS011;50864;45.050;39.014;2023-03-21T15:45:26;18.35;;;5.07;;
64487;SDS011;50864;45.050;39.014;2023-03-21T15:47:54;12.23;;;4.57;;
64487;SDS011;50864;45.050;39.014;2023-03-21T15:50:27;13.48;;;4.30;;
64487;SDS011;50864;45.050;39.014;2023-03-21T15:52:57;17.00;;;7.15;;
64487;SDS011;50864;45.050;39.014;2023-03-21T15:55:37;12.80;;;5.75;;
64487;SDS011;50864;45.050;39.014;2023-03-21T15:58:04;13.30;;;4.75;;
64487;SDS011;50864;45.050;39.014;2023-03-21T16:02:58;13.23;;;3.97;;
64487;SDS011;50864;45.050;39.014;2023-03-21T16:05:31;10.93;;;3.65;;
64487;SDS011;50864;45.050;39.014;2023-03-21T16:10:27;13.40;;;3.72;;
64487;SDS011;50864;45.050;39.014;2023-03-21T16:12:54;10.18;;;3.83;;
64487;SDS011;50864;45.050;39.014;2023-03-21T16:15:20;8.05;;;3.60;;
64487;SDS011;50864;45.050;39.014;2023-03-21T16:17:50;11.50;;;3.50;;
64487;SDS011;50864;45.050;39.014;2023-03-21T16:20:17;10.95;;;4.80;;
64487;SDS011;50864;45.050;39.014;2023-03-21T16:22:45;10.77;;;3.58;;
64487;SDS011;50864;45.050;39.014;2023-03-21T16:25:12;10.65;;;3.78;;
64487;SDS011;50864;45.050;39.014;2023-03-21T16:27:37;10.52;;;3.65;;
64487;SDS011;50864;45.050;39.014;2023-03-21T16:30:04;8.88;;;3.60;;
64487;SDS011;50864;45.050;39.014;2023-03-21T16:32:31;11.32;;;3.03;;
64487;SDS011;50864;45.050;39.014;2023-03-21T16:34:57;13.05;;;3.53;;
64487;SDS011;50864;45.050;39.014;2023-03-21T16:37:23;10.13;;;3.37;;
64487;SDS011;50864;45.050;39.014;2023-03-21T16:39:48;10.32;;;3.28;;